sensor_id;sensor_type;location;lat;lon;timestamp;pressure;altitude;pressure_sealevel;temperature;humidity
83095;BME280;72967;43.674;6.976;2023-11-19T00:01:01;97187.13;;;11.33;44.75
83095;BME280;72967;43.674;6.976;2023-11-19T00:03:26;97167.47;;;11.10;44.07
83095;BME280;72967;43.674;6.976;2023-11-19T00:05:51;97188.38;;;11.23;45.16
83095;BME280;72967;43.674;6.976;2023-11-19T00:08:17;97178.50;;;11.22;45.80
83095;BME280;72967;43.674;6.976;2023-11-19T00:10:42;97181.84;;;11.28;45.72
83095;BME280;72967;43.674;6.976;2023-11-19T00:13:08;97196.88;;;11.30;46.24
83095;BME280;72967;43.674;6.976;2023-11-19T00:15:35;97188.81;;;11.25;47.11
83095;BME280;72967;43.674;6.976;2023-11-19T00:18:01;97171.72;;;11.20;48.85
83095;BME280;72967;43.674;6.976;2023-11-19T00:20:30;97183.47;;;11.41;48.94
83095;BME280;72967;43.674;6.976;2023-11-19T00:22:55;97178.78;;;11.41;50.92
83095;BME280;72967;43.674;6.976;2023-11-19T00:25:21;97175.94;;;11.50;50.76
83095;BME280;72967;43.674;6.976;2023-11-19T00:27:50;97173.19;;;11.50;52.13
83095;BME280;72967;43.674;6.976;2023-11-19T00:30:16;97185.34;;;11.49;56.48
83095;BME280;72967;43.674;6.976;2023-11-19T00:32:42;97186.59;;;11.64;53.80
83095;BME280;72967;43.674;6.976;2023-11-19T00:35:08;97163.97;;;11.46;52.07
83095;BME280;72967;43.674;6.976;2023-11-19T00:37:35;97181.88;;;11.52;54.32
83095;BME280;72967;43.674;6.976;2023-11-19T00:40:01;97172.81;;;11.51;54.27
83095;BME280;72967;43.674;6.976;2023-11-19T00:42:31;97179.09;;;11.40;58.38
83095;BME280;72967;43.674;6.976;2023-11-19T00:44:56;97169.47;;;11.46;60.02
83095;BME280;72967;43.674;6.976;2023-11-19T00:47:23;97147.44;;;11.22;60.90
83095;BME280;72967;43.674;6.976;2023-11-19T00:49:48;97168.44;;;11.50;60.77
83095;BME280;72967;43.674;6.976;2023-11-19T00:52:15;97163.63;;;11.47;60.54
83095;BME280;72967;43.674;6.976;2023-11-19T00:54:40;97146.06;;;11.40;60.77
83095;BME280;72967;43.674;6.976;2023-11-19T00:57:06;97151.91;;;11.26;61.52
83095;BME280;72967;43.674;6.976;2023-11-19T00:59:31;97141.34;;;11.16;63.74
83095;BME280;72967;43.674;6.976;2023-11-19T01:01:58;97168.91;;;11.28;64.03
83095;BME280;72967;43.674;6.976;2023-11-19T01:04:24;97173.16;;;11.38;63.29
83095;BME280;72967;43.674;6.976;2023-11-19T01:06:49;97172.34;;;11.37;63.05
83095;BME280;72967;43.674;6.976;2023-11-19T01:09:15;97170.63;;;11.33;64.12
83095;BME280;72967;43.674;6.976;2023-11-19T01:11:40;97160.53;;;11.37;63.02
83095;BME280;72967;43.674;6.976;2023-11-19T01:14:06;97161.22;;;11.34;64.53
83095;BME280;72967;43.674;6.976;2023-11-19T01:16:31;97171.66;;;11.28;63.93
83095;BME280;72967;43.674;6.976;2023-11-19T01:18:57;97172.66;;;11.24;68.02
83095;BME280;72967;43.674;6.976;2023-11-19T01:21:22;97173.13;;;11.26;66.79
83095;BME280;72967;43.674;6.976;2023-11-19T01:23:48;97166.59;;;11.30;68.57
83095;BME280;72967;43.674;6.976;2023-11-19T01:26:13;97151.00;;;11.22;67.68
83095;BME280;72967;43.674;6.976;2023-11-19T01:28:39;97168.31;;;11.35;67.40
83095;BME280;72967;43.674;6.976;2023-11-19T01:31:15;97160.06;;;11.35;68.84
83095;BME280;72967;43.674;6.976;2023-11-19T01:33:40;97158.25;;;11.39;67.86
83095;BME280;72967;43.674;6.976;2023-11-19T01:36:07;97161.91;;;11.43;69.00
83095;BME280;72967;43.674;6.976;2023-11-19T01:38:34;97160.31;;;11.42;68.78
83095;BME280;72967;43.674;6.976;2023-11-19T01:40:59;97152.63;;;11.47;68.96
83095;BME280;72967;43.674;6.976;2023-11-19T01:43:37;97137.69;;;11.36;68.05
83095;BME280;72967;43.674;6.976;2023-11-19T01:46:04;97155.25;;;11.32;68.02
83095;BME280;72967;43.674;6.976;2023-11-19T01:48:31;97126.56;;;11.08;67.63
83095;BME280;72967;43.674;6.976;2023-11-19T01:50:58;97157.31;;;11.23;66.65
83095;BME280;72967;43.674;6.976;2023-11-19T01:53:24;97155.19;;;11.07;67.10
83095;BME280;72967;43.674;6.976;2023-11-19T01:55:50;97162.09;;;11.14;67.23
83095;BME280;72967;43.674;6.976;2023-11-19T01:58:17;97151.88;;;11.14;67.72
83095;BME280;72967;43.674;6.976;2023-11-19T02:00:44;97153.69;;;11.10;67.48
83095;BME280;72967;43.674;6.976;2023-11-19T02:03:10;97146.72;;;11.13;66.71
83095;BME280;72967;43.674;6.976;2023-11-19T02:05:37;97101.34;;;10.74;68.45
83095;BME280;72967;43.674;6.976;2023-11-19T02:08:03;97110.88;;;10.88;67.20
83095;BME280;72967;43.674;6.976;2023-11-19T02:10:29;97149.47;;;11.13;67.79
83095;BME280;72967;43.674;6.976;2023-11-19T02:12:55;97153.03;;;11.13;67.58
83095;BME280;72967;43.674;6.976;2023-11-19T02:15:20;97132.81;;;11.09;67.07
83095;BME280;72967;43.674;6.976;2023-11-19T02:17:50;97142.59;;;11.06;67.36
83095;BME280;72967;43.674;6.976;2023-11-19T02:20:15;97129.03;;;11.01;67.36
83095;BME280;72967;43.674;6.976;2023-11-19T02:22:41;97117.94;;;10.98;67.03
83095;BME280;72967;43.674;6.976;2023-11-19T02:25:29;97145.00;;;11.08;67.34
83095;BME280;72967;43.674;6.976;2023-11-19T02:27:58;97139.13;;;11.09;67.80
83095;BME280;72967;43.674;6.976;2023-11-19T02:30:25;97141.88;;;11.09;68.06
83095;BME280;72967;43.674;6.976;2023-11-19T02:32:58;97136.38;;;11.09;68.34
83095;BME280;72967;43.674;6.976;2023-11-19T02:35:27;97099.31;;;10.83;69.01
83095;BME280;72967;43.674;6.976;2023-11-19T02:37:55;97128.34;;;11.04;68.93
83095;BME280;72967;43.674;6.976;2023-11-19T02:40:21;97125.06;;;11.11;69.07
83095;BME280;72967;43.674;6.976;2023-11-19T02:42:48;97135.72;;;11.13;68.56
83095;BME280;72967;43.674;6.976;2023-11-19T02:45:14;97125.16;;;11.15;69.13
83095;BME280;72967;43.674;6.976;2023-11-19T02:47:43;97117.28;;;11.13;68.77
83095;BME280;72967;43.674;6.976;2023-11-19T02:50:10;97107.16;;;11.05;68.12
83095;BME280;72967;43.674;6.976;2023-11-19T02:52:43;97121.97;;;11.13;67.96
83095;BME280;72967;43.674;6.976;2023-11-19T02:55:12;97113.47;;;11.05;68.84
83095;BME280;72967;43.674;6.976;2023-11-19T02:57:41;97112.09;;;11.12;69.35
83095;BME280;72967;43.674;6.976;2023-11-19T03:00:18;97122.66;;;11.22;69.06
83095;BME280;72967;43.674;6.976;2023-11-19T03:02:48;97116.47;;;11.25;68.69
83095;BME280;72967;43.674;6.976;2023-11-19T03:05:23;97096.91;;;10.93;69.25
83095;BME280;72967;43.674;6.976;2023-11-19T03:07:49;97039.28;;;10.40;68.24
83095;BME280;72967;43.674;6.976;2023-11-19T03:10:14;97107.56;;;10.83;67.62
83095;BME280;72967;43.674;6.976;2023-11-19T03:12:41;97114.09;;;10.90;68.67
83095;BME280;72967;43.674;6.976;2023-11-19T03:15:07;97098.50;;;10.82;68.61
83095;BME280;72967;43.674;6.976;2023-11-19T03:17:38;97116.28;;;10.85;69.82
83095;BME280;72967;43.674;6.976;2023-11-19T03:20:06;97115.63;;;11.00;69.60
83095;BME280;72967;43.674;6.976;2023-11-19T03:22:32;97081.47;;;10.56;69.05
83095;BME280;72967;43.674;6.976;2023-11-19T03:24:59;97061.84;;;10.45;68.32
83095;BME280;72967;43.674;6.976;2023-11-19T03:27:24;97115.69;;;10.79;68.53
83095;BME280;72967;43.674;6.976;2023-11-19T03:29:50;97114.22;;;10.94;70.44
83095;BME280;72967;43.674;6.976;2023-11-19T03:32:15;97108.06;;;10.97;70.17
83095;BME280;72967;43.674;6.976;2023-11-19T03:34:41;97098.66;;;10.98;69.88
83095;BME280;72967;43.674;6.976;2023-11-19T03:37:06;97053.66;;;10.70;69.64
83095;BME280;72967;43.674;6.976;2023-11-19T03:39:31;97106.34;;;10.92;70.23
83095;BME280;72967;43.674;6.976;2023-11-19T03:41:58;97098.13;;;10.72;69.85
83095;BME280;72967;43.674;6.976;2023-11-19T03:44:23;97103.22;;;10.94;71.35
83095;BME280;72967;43.674;6.976;2023-11-19T03:46:51;97106.13;;;10.97;71.12
83095;BME280;72967;43.674;6.976;2023-11-19T03:49:17;97102.00;;;11.03;71.38
83095;BME280;72967;43.674;6.976;2023-11-19T03:51:42;97099.34;;;10.95;71.00
83095;BME280;72967;43.674;6.976;2023-11-19T03:54:07;97092.22;;;10.94;70.05
83095;BME280;72967;43.674;6.976;2023-11-19T03:56:33;97094.47;;;10.80;69.40
83095;BME280;72967;43.674;6.976;2023-11-19T03:58:58;97095.88;;;10.86;71.38
83095;BME280;72967;43.674;6.976;2023-11-19T04:01:24;97086.81;;;10.85;72.16
83095;BME280;72967;43.674;6.976;2023-11-19T04:03:49;97094.31;;;10.97;70.85
83095;BME280;72967;43.674;6.976;2023-11-19T04:06:15;97081.44;;;10.89;71.70
83095;BME280;72967;43.674;6.976;2023-11-19T04:08:40;97066.88;;;10.76;70.85
83095;BME280;72967;43.674;6.976;2023-11-19T04:11:06;97091.06;;;10.95;71.23
83095;BME280;72967;43.674;6.976;2023-11-19T04:13:34;97093.38;;;10.93;69.84
83095;BME280;72967;43.674;6.976;2023-11-19T04:16:00;97086.34;;;10.71;69.88
83095;BME280;72967;43.674;6.976;2023-11-19T04:18:25;97087.72;;;10.77;71.96
83095;BME280;72967;43.674;6.976;2023-11-19T04:20:51;97067.69;;;10.77;72.31
83095;BME280;72967;43.674;6.976;2023-11-19T04:23:16;97077.00;;;10.63;70.05
83095;BME280;72967;43.674;6.976;2023-11-19T04:25:42;97075.22;;;10.47;71.32
83095;BME280;72967;43.674;6.976;2023-11-19T04:28:07;97075.56;;;10.66;72.55
83095;BME280;72967;43.674;6.976;2023-11-19T04:30:33;97058.53;;;10.52;71.85
83095;BME280;72967;43.674;6.976;2023-11-19T04:32:59;97065.63;;;10.41;70.03
83095;BME280;72967;43.674;6.976;2023-11-19T04:35:24;97077.69;;;10.28;70.65
83095;BME280;72967;43.674;6.976;2023-11-19T04:37:51;97072.88;;;10.25;69.94
83095;BME280;72967;43.674;6.976;2023-11-19T04:40:17;97058.50;;;9.98;69.62
83095;BME280;72967;43.674;6.976;2023-11-19T04:42:43;97042.69;;;9.74;71.27
83095;BME280;72967;43.674;6.976;2023-11-19T04:45:09;97066.44;;;10.00;72.91
83095;BME280;72967;43.674;6.976;2023-11-19T04:47:36;97056.38;;;10.04;72.18
83095;BME280;72967;43.674;6.976;2023-11-19T04:50:02;97051.09;;;9.99;72.49
83095;BME280;72967;43.674;6.976;2023-11-19T04:52:28;97048.47;;;10.02;72.63
83095;BME280;72967;43.674;6.976;2023-11-19T04:54:54;97051.69;;;10.04;72.81
83095;BME280;72967;43.674;6.976;2023-11-19T04:57:19;97046.00;;;10.09;72.75
83095;BME280;72967;43.674;6.976;2023-11-19T04:59:44;97051.59;;;10.13;72.45
83095;BME280;72967;43.674;6.976;2023-11-19T05:02:10;97042.44;;;10.09;72.66
83095;BME280;72967;43.674;6.976;2023-11-19T05:04:36;96977.75;;;9.58;72.81
83095;BME280;72967;43.674;6.976;2023-11-19T05:07:03;97057.91;;;10.13;73.41
83095;BME280;72967;43.674;6.976;2023-11-19T05:09:30;97040.22;;;10.23;71.73
83095;BME280;72967;43.674;6.976;2023-11-19T05:11:55;97038.50;;;10.18;72.06
83095;BME280;72967;43.674;6.976;2023-11-19T05:14:21;97037.75;;;10.09;73.47
83095;BME280;72967;43.674;6.976;2023-11-19T05:16:47;97002.66;;;9.94;73.04
83095;BME280;72967;43.674;6.976;2023-11-19T05:19:12;97032.31;;;10.21;72.33
83095;BME280;72967;43.674;6.976;2023-11-19T05:21:42;97035.66;;;10.27;72.29
83095;BME280;72967;43.674;6.976;2023-11-19T05:24:08;97038.34;;;10.15;71.58
83095;BME280;72967;43.674;6.976;2023-11-19T05:26:33;97020.66;;;10.04;72.60
83095;BME280;72967;43.674;6.976;2023-11-19T05:28:58;97035.00;;;10.09;72.50
83095;BME280;72967;43.674;6.976;2023-11-19T05:31:24;97032.19;;;10.18;72.94
83095;BME280;72967;43.674;6.976;2023-11-19T05:33:49;97037.53;;;10.35;72.81
83095;BME280;72967;43.674;6.976;2023-11-19T05:36:15;97035.50;;;10.44;72.81
83095;BME280;72967;43.674;6.976;2023-11-19T05:38:40;97026.13;;;10.45;73.66
83095;BME280;72967;43.674;6.976;2023-11-19T05:41:06;97030.34;;;10.43;72.71
83095;BME280;72967;43.674;6.976;2023-11-19T05:43:32;97017.63;;;10.38;73.78
83095;BME280;72967;43.674;6.976;2023-11-19T05:45:57;97009.09;;;10.31;73.21
83095;BME280;72967;43.674;6.976;2023-11-19T05:48:25;97017.63;;;10.38;74.51
83095;BME280;72967;43.674;6.976;2023-11-19T05:50:51;97012.38;;;10.45;74.20
83095;BME280;72967;43.674;6.976;2023-11-19T05:53:16;97020.75;;;10.49;72.87
83095;BME280;72967;43.674;6.976;2023-11-19T05:55:41;97004.47;;;10.44;72.48
83095;BME280;72967;43.674;6.976;2023-11-19T05:58:36;97020.03;;;10.40;72.81
83095;BME280;72967;43.674;6.976;2023-11-19T06:01:02;97016.59;;;10.43;74.12
83095;BME280;72967;43.674;6.976;2023-11-19T06:03:28;97027.00;;;10.37;73.80
83095;BME280;72967;43.674;6.976;2023-11-19T06:05:54;97019.56;;;10.38;74.24
83095;BME280;72967;43.674;6.976;2023-11-19T06:08:20;97018.00;;;10.49;73.81
83095;BME280;72967;43.674;6.976;2023-11-19T06:10:46;97004.56;;;10.47;73.69
83095;BME280;72967;43.674;6.976;2023-11-19T06:13:15;97016.41;;;10.60;74.01
83095;BME280;72967;43.674;6.976;2023-11-19T06:15:41;97001.97;;;10.51;75.17
83095;BME280;72967;43.674;6.976;2023-11-19T06:18:07;97031.56;;;10.66;74.86
83095;BME280;72967;43.674;6.976;2023-11-19T06:20:33;97025.91;;;10.62;74.10
83095;BME280;72967;43.674;6.976;2023-11-19T06:22:59;97026.81;;;10.54;73.36
83095;BME280;72967;43.674;6.976;2023-11-19T06:25:25;97022.72;;;10.60;73.38
83095;BME280;72967;43.674;6.976;2023-11-19T06:27:51;97016.41;;;10.60;73.95
83095;BME280;72967;43.674;6.976;2023-11-19T06:30:17;97030.06;;;10.69;73.00
83095;BME280;72967;43.674;6.976;2023-11-19T06:32:42;97010.22;;;10.63;73.22
83095;BME280;72967;43.674;6.976;2023-11-19T06:35:08;97022.50;;;10.65;73.72
83095;BME280;72967;43.674;6.976;2023-11-19T06:37:35;97029.72;;;10.70;73.49
83095;BME280;72967;43.674;6.976;2023-11-19T06:40:00;97025.84;;;10.71;73.52
83095;BME280;72967;43.674;6.976;2023-11-19T06:42:26;97022.03;;;10.63;74.06
83095;BME280;72967;43.674;6.976;2023-11-19T06:44:51;97022.03;;;10.63;73.45
83095;BME280;72967;43.674;6.976;2023-11-19T06:47:17;97034.53;;;10.73;72.56
83095;BME280;72967;43.674;6.976;2023-11-19T06:49:46;97033.72;;;10.73;71.96
83095;BME280;72967;43.674;6.976;2023-11-19T06:52:12;97044.50;;;10.78;72.01
83095;BME280;72967;43.674;6.976;2023-11-19T06:54:40;97036.84;;;10.71;72.20
83095;BME280;72967;43.674;6.976;2023-11-19T06:57:06;97031.72;;;10.82;72.01
83095;BME280;72967;43.674;6.976;2023-11-19T06:59:31;97028.72;;;10.87;71.82
83095;BME280;72967;43.674;6.976;2023-11-19T07:01:56;97028.50;;;10.92;72.15
83095;BME280;72967;43.674;6.976;2023-11-19T07:04:22;97035.41;;;10.98;71.42
83095;BME280;72967;43.674;6.976;2023-11-19T07:06:47;97005.69;;;10.79;72.56
83095;BME280;72967;43.674;6.976;2023-11-19T07:09:14;97016.59;;;10.88;72.58
83095;BME280;72967;43.674;6.976;2023-11-19T07:11:40;97020.16;;;11.00;73.31
83095;BME280;72967;43.674;6.976;2023-11-19T07:14:07;97035.06;;;11.12;73.91
83095;BME280;72967;43.674;6.976;2023-11-19T07:16:33;97031.59;;;11.15;74.18
83095;BME280;72967;43.674;6.976;2023-11-19T07:19:03;97037.81;;;11.12;73.33
83095;BME280;72967;43.674;6.976;2023-11-19T07:21:28;97031.84;;;11.22;72.98
83095;BME280;72967;43.674;6.976;2023-11-19T07:23:57;97021.75;;;11.26;73.06
83095;BME280;72967;43.674;6.976;2023-11-19T07:26:23;97031.50;;;11.35;72.80
83095;BME280;72967;43.674;6.976;2023-11-19T07:28:49;97015.81;;;11.24;72.70
83095;BME280;72967;43.674;6.976;2023-11-19T07:31:15;97031.03;;;11.45;72.81
83095;BME280;72967;43.674;6.976;2023-11-19T07:33:40;97026.31;;;11.46;72.95
83095;BME280;72967;43.674;6.976;2023-11-19T07:36:09;97018.06;;;11.46;72.52
83095;BME280;72967;43.674;6.976;2023-11-19T07:38:35;97025.97;;;11.60;72.17
83095;BME280;72967;43.674;6.976;2023-11-19T07:41:01;97012.44;;;11.55;71.85
83095;BME280;72967;43.674;6.976;2023-11-19T07:43:26;97038.47;;;11.81;71.02
83095;BME280;72967;43.674;6.976;2023-11-19T07:45:52;97030.53;;;11.68;69.85
83095;BME280;72967;43.674;6.976;2023-11-19T07:48:17;97016.22;;;11.74;70.22
83095;BME280;72967;43.674;6.976;2023-11-19T07:50:48;97022.88;;;11.73;71.07
83095;BME280;72967;43.674;6.976;2023-11-19T07:53:16;97008.16;;;11.81;70.70
83095;BME280;72967;43.674;6.976;2023-11-19T07:55:41;97027.63;;;12.01;70.18
83095;BME280;72967;43.674;6.976;2023-11-19T07:58:07;97025.22;;;11.99;70.96
83095;BME280;72967;43.674;6.976;2023-11-19T08:00:32;97014.34;;;11.90;70.97
83095;BME280;72967;43.674;6.976;2023-11-19T08:02:57;97025.31;;;12.03;71.07
83095;BME280;72967;43.674;6.976;2023-11-19T08:05:23;97031.69;;;12.19;69.89
83095;BME280;72967;43.674;6.976;2023-11-19T08:07:50;97033.97;;;12.29;70.08
83095;BME280;72967;43.674;6.976;2023-11-19T08:10:16;97023.38;;;12.31;69.72
83095;BME280;72967;43.674;6.976;2023-11-19T08:12:41;97034.16;;;12.36;69.60
83095;BME280;72967;43.674;6.976;2023-11-19T08:15:07;97031.16;;;12.41;69.27
83095;BME280;72967;43.674;6.976;2023-11-19T08:17:33;97041.03;;;12.42;69.58
83095;BME280;72967;43.674;6.976;2023-11-19T08:19:58;97033.56;;;12.43;70.23
83095;BME280;72967;43.674;6.976;2023-11-19T08:22:25;97034.75;;;12.57;70.00
83095;BME280;72967;43.674;6.976;2023-11-19T08:24:50;97047.50;;;12.62;69.78
83095;BME280;72967;43.674;6.976;2023-11-19T08:27:16;96999.81;;;12.33;69.50
83095;BME280;72967;43.674;6.976;2023-11-19T08:29:41;97034.56;;;12.50;70.04
83095;BME280;72967;43.674;6.976;2023-11-19T08:32:06;97029.41;;;12.64;70.26
83095;BME280;72967;43.674;6.976;2023-11-19T08:34:32;97034.16;;;12.64;69.91
83095;BME280;72967;43.674;6.976;2023-11-19T08:36:57;97033.44;;;12.67;70.25
83095;BME280;72967;43.674;6.976;2023-11-19T08:39:23;97039.16;;;12.74;69.63
83095;BME280;72967;43.674;6.976;2023-11-19T08:41:49;97035.34;;;12.78;68.52
83095;BME280;72967;43.674;6.976;2023-11-19T08:44:15;97024.03;;;12.84;67.94
83095;BME280;72967;43.674;6.976;2023-11-19T08:46:50;97036.59;;;12.97;67.81
83095;BME280;72967;43.674;6.976;2023-11-19T08:49:16;97008.28;;;12.84;68.39
83095;BME280;72967;43.674;6.976;2023-11-19T08:51:41;97036.59;;;12.97;68.84
83095;BME280;72967;43.674;6.976;2023-11-19T08:54:07;97027.97;;;12.98;67.89
83095;BME280;72967;43.674;6.976;2023-11-19T08:56:32;97032.94;;;13.08;68.30
83095;BME280;72967;43.674;6.976;2023-11-19T08:58:59;97034.19;;;13.11;67.50
83095;BME280;72967;43.674;6.976;2023-11-19T09:01:25;97037.09;;;13.14;67.63
83095;BME280;72967;43.674;6.976;2023-11-19T09:03:51;97025.22;;;13.14;67.09
83095;BME280;72967;43.674;6.976;2023-11-19T09:06:17;97042.94;;;13.29;66.75
83095;BME280;72967;43.674;6.976;2023-11-19T09:08:42;97025.50;;;13.25;66.54
83095;BME280;72967;43.674;6.976;2023-11-19T09:11:08;97031.72;;;13.37;66.53
83095;BME280;72967;43.674;6.976;2023-11-19T09:13:37;97026.72;;;13.27;66.46
83095;BME280;72967;43.674;6.976;2023-11-19T09:16:03;96974.47;;;13.18;65.05
83095;BME280;72967;43.674;6.976;2023-11-19T09:18:29;97025.56;;;13.44;64.94
83095;BME280;72967;43.674;6.976;2023-11-19T09:20:55;97020.50;;;13.46;65.70
83095;BME280;72967;43.674;6.976;2023-11-19T09:23:20;97025.09;;;13.57;66.12
83095;BME280;72967;43.674;6.976;2023-11-19T09:25:46;97014.13;;;13.61;65.78
83095;BME280;72967;43.674;6.976;2023-11-19T09:28:11;97020.47;;;13.61;65.99
83095;BME280;72967;43.674;6.976;2023-11-19T09:30:36;97012.19;;;13.61;66.51
83095;BME280;72967;43.674;6.976;2023-11-19T09:33:02;97000.75;;;13.63;65.49
83095;BME280;72967;43.674;6.976;2023-11-19T09:35:27;97031.72;;;13.88;65.75
83095;BME280;72967;43.674;6.976;2023-11-19T09:37:53;97031.84;;;13.95;65.82
83095;BME280;72967;43.674;6.976;2023-11-19T09:40:18;97037.38;;;13.95;66.10
83095;BME280;72967;43.674;6.976;2023-11-19T09:42:44;97027.34;;;13.87;66.85
83095;BME280;72967;43.674;6.976;2023-11-19T09:45:17;97034.91;;;13.90;66.24
83095;BME280;72967;43.674;6.976;2023-11-19T09:47:46;97034.63;;;13.95;65.97
83095;BME280;72967;43.674;6.976;2023-11-19T09:50:18;97044.69;;;14.03;65.68
83095;BME280;72967;43.674;6.976;2023-11-19T09:52:44;97017.53;;;13.89;65.26
83095;BME280;72967;43.674;6.976;2023-11-19T09:55:10;97036.63;;;14.14;64.82
83095;BME280;72967;43.674;6.976;2023-11-19T09:57:38;97032.78;;;14.18;64.86
83095;BME280;72967;43.674;6.976;2023-11-19T10:00:04;97040.47;;;14.28;64.75
83095;BME280;72967;43.674;6.976;2023-11-19T10:02:34;97039.69;;;14.28;64.46
83095;BME280;72967;43.674;6.976;2023-11-19T10:05:12;97022.56;;;14.03;64.75
83095;BME280;72967;43.674;6.976;2023-11-19T10:07:39;97043.44;;;14.20;64.68
83095;BME280;72967;43.674;6.976;2023-11-19T10:10:05;97031.22;;;14.21;64.48
83095;BME280;72967;43.674;6.976;2023-11-19T10:12:31;97040.25;;;14.18;64.53
83095;BME280;72967;43.674;6.976;2023-11-19T10:14:57;97030.22;;;14.29;64.32
83095;BME280;72967;43.674;6.976;2023-11-19T10:17:32;97028.06;;;14.38;64.18
83095;BME280;72967;43.674;6.976;2023-11-19T10:19:58;97023.59;;;14.53;64.09
83095;BME280;72967;43.674;6.976;2023-11-19T10:22:24;97022.09;;;14.55;63.70
83095;BME280;72967;43.674;6.976;2023-11-19T10:24:50;97007.38;;;14.51;63.25
83095;BME280;72967;43.674;6.976;2023-11-19T10:27:15;97007.88;;;14.57;63.08
83095;BME280;72967;43.674;6.976;2023-11-19T10:29:45;97008.16;;;14.71;63.22
83095;BME280;72967;43.674;6.976;2023-11-19T10:32:12;97012.09;;;14.70;63.27
83095;BME280;72967;43.674;6.976;2023-11-19T10:34:37;96985.06;;;14.63;62.88
83095;BME280;72967;43.674;6.976;2023-11-19T10:37:04;97002.94;;;14.88;62.90
83095;BME280;72967;43.674;6.976;2023-11-19T10:39:52;96994.63;;;14.88;62.60
83095;BME280;72967;43.674;6.976;2023-11-19T10:42:19;96994.22;;;14.86;62.81
83095;BME280;72967;43.674;6.976;2023-11-19T10:44:45;96982.34;;;14.86;62.86
83095;BME280;72967;43.674;6.976;2023-11-19T10:47:12;96961.03;;;14.90;63.46
83095;BME280;72967;43.674;6.976;2023-11-19T10:49:38;96980.59;;;15.01;63.15
83095;BME280;72967;43.674;6.976;2023-11-19T10:52:05;96980.25;;;15.02;62.30
83095;BME280;72967;43.674;6.976;2023-11-19T10:54:31;96955.81;;;14.85;61.99
83095;BME280;72967;43.674;6.976;2023-11-19T10:57:01;96971.81;;;14.95;63.12
83095;BME280;72967;43.674;6.976;2023-11-19T10:59:31;96971.13;;;15.02;62.98
83095;BME280;72967;43.674;6.976;2023-11-19T11:02:02;96951.31;;;15.00;62.75
83095;BME280;72967;43.674;6.976;2023-11-19T11:04:29;96968.59;;;15.16;62.93
83095;BME280;72967;43.674;6.976;2023-11-19T11:06:58;96950.38;;;15.15;62.19
83095;BME280;72967;43.674;6.976;2023-11-19T11:09:26;96957.94;;;15.18;62.29
83095;BME280;72967;43.674;6.976;2023-11-19T11:11:54;96962.25;;;15.15;63.07
83095;BME280;72967;43.674;6.976;2023-11-19T11:14:23;96950.81;;;15.17;63.05
83095;BME280;72967;43.674;6.976;2023-11-19T11:16:49;96939.59;;;15.10;62.82
83095;BME280;72967;43.674;6.976;2023-11-19T11:19:16;96955.31;;;15.28;62.69
83095;BME280;72967;43.674;6.976;2023-11-19T11:21:50;96948.03;;;15.17;63.01
83095;BME280;72967;43.674;6.976;2023-11-19T11:27:43;96947.56;;;15.38;62.53
83095;BME280;72967;43.674;6.976;2023-11-19T11:30:35;96955.94;;;15.41;61.75
83095;BME280;72967;43.674;6.976;2023-11-19T11:36:21;96945.31;;;15.47;61.65
83095;BME280;72967;43.674;6.976;2023-11-19T11:38:49;96942.84;;;15.38;62.27
83095;BME280;72967;43.674;6.976;2023-11-19T11:41:16;96941.09;;;15.30;62.68
83095;BME280;72967;43.674;6.976;2023-11-19T11:43:53;96934.41;;;15.31;61.93
83095;BME280;72967;43.674;6.976;2023-11-19T11:49:07;96928.44;;;15.55;61.52
83095;BME280;72967;43.674;6.976;2023-11-19T11:54:11;96911.31;;;15.50;62.03
83095;BME280;72967;43.674;6.976;2023-11-19T11:57:03;96919.28;;;15.51;61.43
83095;BME280;72967;43.674;6.976;2023-11-19T11:59:43;96907.28;;;15.44;60.96
83095;BME280;72967;43.674;6.976;2023-11-19T12:02:21;96909.44;;;15.54;61.41
83095;BME280;72967;43.674;6.976;2023-11-19T12:04:51;96906.72;;;15.57;61.51
83095;BME280;72967;43.674;6.976;2023-11-19T12:07:24;96895.66;;;15.61;60.71
83095;BME280;72967;43.674;6.976;2023-11-19T12:09:52;96904.13;;;15.71;59.97
83095;BME280;72967;43.674;6.976;2023-11-19T12:12:26;96891.53;;;15.78;59.87
83095;BME280;72967;43.674;6.976;2023-11-19T12:19:59;96866.75;;;15.92;59.59
83095;BME280;72967;43.674;6.976;2023-11-19T12:22:25;96869.16;;;15.93;59.67
83095;BME280;72967;43.674;6.976;2023-11-19T12:24:52;96875.50;;;15.94;59.66
83095;BME280;72967;43.674;6.976;2023-11-19T12:27:19;96871.63;;;16.02;59.72
83095;BME280;72967;43.674;6.976;2023-11-19T12:29:47;96869.72;;;16.09;59.28
83095;BME280;72967;43.674;6.976;2023-11-19T12:32:12;96857.41;;;16.07;59.22
83095;BME280;72967;43.674;6.976;2023-11-19T12:34:38;96858.94;;;16.01;59.56
83095;BME280;72967;43.674;6.976;2023-11-19T12:37:04;96850.19;;;15.99;60.53
83095;BME280;72967;43.674;6.976;2023-11-19T12:39:30;96836.50;;;16.16;59.47
83095;BME280;72967;43.674;6.976;2023-11-19T12:41:56;96846.50;;;16.25;59.49
83095;BME280;72967;43.674;6.976;2023-11-19T12:44:24;96833.47;;;16.29;59.34
83095;BME280;72967;43.674;6.976;2023-11-19T12:49:28;96820.47;;;16.36;59.07
83095;BME280;72967;43.674;6.976;2023-11-19T12:51:53;96819.25;;;16.37;59.24
83095;BME280;72967;43.674;6.976;2023-11-19T12:54:19;96810.88;;;16.30;59.18
83095;BME280;72967;43.674;6.976;2023-11-19T12:56:53;96789.34;;;16.16;59.79
83095;BME280;72967;43.674;6.976;2023-11-19T12:59:19;96784.19;;;16.15;60.05
83095;BME280;72967;43.674;6.976;2023-11-19T13:01:55;96810.19;;;16.40;59.92
83095;BME280;72967;43.674;6.976;2023-11-19T13:04:20;96804.53;;;16.30;60.37
83095;BME280;72967;43.674;6.976;2023-11-19T13:06:46;96796.53;;;16.21;60.25
83095;BME280;72967;43.674;6.976;2023-11-19T13:09:24;96781.97;;;16.31;59.54
83095;BME280;72967;43.674;6.976;2023-11-19T13:11:51;96803.75;;;16.33;59.87
83095;BME280;72967;43.674;6.976;2023-11-19T13:14:18;96801.69;;;16.23;60.16
83095;BME280;72967;43.674;6.976;2023-11-19T13:16:44;96779.34;;;16.05;60.10
83095;BME280;72967;43.674;6.976;2023-11-19T13:19:12;96810.00;;;16.23;60.20